createdAt,value
2022-09-29T00:00:02.745Z,47.05
2022-09-29T00:01:02.689Z,47.21
2022-09-29T00:02:02.748Z,51.24
2022-09-29T00:03:02.731Z,47.86
2022-09-29T00:04:02.664Z,46.73
2022-09-29T00:05:02.677Z,47.05
2022-09-29T00:06:02.645Z,49.63
2022-09-29T00:07:02.653Z,48.34
2022-09-29T00:08:02.641Z,48.82
2022-09-29T00:09:02.636Z,49.63
2022-09-29T00:10:02.647Z,49.47
2022-09-29T00:11:02.616Z,49.79
2022-09-29T00:12:02.609Z,50.76
2022-09-29T00:13:02.609Z,48.82
2022-09-29T00:14:02.600Z,50.60
2022-09-29T00:15:02.593Z,46.73
2022-09-29T00:16:02.701Z,47.05
2022-09-29T00:17:02.577Z,50.43
2022-09-29T00:18:13.706Z,47.37
2022-09-29T00:19:04.864Z,45.76
2022-09-29T00:20:02.548Z,45.76
2022-09-29T00:21:02.557Z,47.37
2022-09-29T00:22:02.545Z,46.89
2022-09-29T00:23:02.541Z,46.89
2022-09-29T00:24:02.530Z,48.50
2022-09-29T00:25:02.553Z,48.18
2022-09-29T00:26:02.545Z,49.79
2022-09-29T00:27:02.509Z,48.50
2022-09-29T00:28:02.509Z,46.41
2022-09-29T00:29:02.493Z,45.92
2022-09-29T00:30:03.493Z,47.21
2022-09-29T00:31:02.595Z,46.25
2022-09-29T00:32:02.513Z,46.89
2022-09-29T00:33:02.476Z,46.08
2022-09-29T00:34:02.468Z,45.44
2022-09-29T00:35:02.454Z,49.15
2022-09-29T00:36:02.457Z,48.18
2022-09-29T00:37:02.466Z,46.57
2022-09-29T00:38:02.437Z,46.08
2022-09-29T00:39:02.443Z,45.44
2022-09-29T00:40:02.430Z,46.89
2022-09-29T00:41:02.455Z,46.08
2022-09-29T00:42:02.424Z,45.92
2022-09-29T00:43:02.414Z,45.76
2022-09-29T00:44:02.397Z,45.44
2022-09-29T00:45:03.399Z,46.25
2022-09-29T00:46:02.487Z,46.25
2022-09-29T00:47:02.397Z,48.98
2022-09-29T00:48:02.381Z,50.92
2022-09-29T00:49:02.377Z,46.89
2022-09-29T00:50:02.364Z,50.11
2022-09-29T00:51:02.360Z,45.60
2022-09-29T00:52:02.377Z,46.41
2022-09-29T00:53:02.351Z,47.21
2022-09-29T00:54:02.334Z,45.76
2022-09-29T00:55:02.333Z,44.63
2022-09-29T00:56:02.335Z,49.63
2022-09-29T00:57:02.331Z,46.73
2022-09-29T00:58:02.309Z,45.92
2022-09-29T00:59:02.305Z,50.60
2022-09-29T01:00:02.300Z,50.43
2022-09-29T01:01:02.338Z,49.63
2022-09-29T01:02:02.386Z,47.86
2022-09-29T01:03:02.296Z,48.50
2022-09-29T01:04:02.287Z,51.24
2022-09-29T01:05:02.269Z,48.66
2022-09-29T01:06:02.261Z,48.02
2022-09-29T01:07:02.250Z,46.73
2022-09-29T01:08:02.255Z,45.28
2022-09-29T01:09:03.243Z,45.28
2022-09-29T01:10:02.236Z,46.57
2022-09-29T01:11:02.221Z,48.50
2022-09-29T01:12:02.233Z,46.25
2022-09-29T01:13:02.234Z,47.37
2022-09-29T01:14:02.218Z,45.44
2022-09-29T01:15:02.200Z,46.08
2022-09-29T01:16:02.297Z,47.86
2022-09-29T01:17:02.197Z,47.21
2022-09-29T01:18:02.209Z,48.34
2022-09-29T01:19:02.177Z,48.18
2022-09-29T01:20:04.772Z,45.60
2022-09-29T01:21:03.186Z,46.89
2022-09-29T01:22:02.157Z,51.24
2022-09-29T01:23:02.165Z,51.40
2022-09-29T01:24:02.148Z,46.73
2022-09-29T01:25:02.125Z,45.92
2022-09-29T01:26:02.130Z,48.02
2022-09-29T01:27:02.117Z,53.33
2022-09-29T01:28:02.133Z,47.86
2022-09-29T01:29:02.104Z,49.31
2022-09-29T01:30:02.104Z,48.98
2022-09-29T01:31:02.131Z,49.63
2022-09-29T01:32:02.089Z,51.24
2022-09-29T01:33:02.094Z,47.05
2022-09-29T01:34:02.084Z,46.57
2022-09-29T01:35:02.065Z,47.53
2022-09-29T01:36:02.052Z,51.72
2022-09-29T01:37:02.054Z,51.08
2022-09-29T01:38:02.040Z,51.08
2022-09-29T01:39:02.061Z,46.25
2022-09-29T01:40:02.036Z,47.70
2022-09-29T01:41:02.106Z,48.02
2022-09-29T01:42:02.025Z,44.96
2022-09-29T01:43:02.014Z,45.60
2022-09-29T01:44:02.022Z,48.18
2022-09-29T01:45:01.997Z,50.76
2022-09-29T01:46:02.059Z,52.85
2022-09-29T01:47:01.980Z,47.53
2022-09-29T01:48:01.969Z,48.02
2022-09-29T01:49:01.959Z,47.53
2022-09-29T01:50:01.968Z,46.25
2022-09-29T01:51:01.954Z,47.53
2022-09-29T01:52:01.940Z,46.57
2022-09-29T01:53:01.941Z,48.98
2022-09-29T01:54:01.940Z,50.11
2022-09-29T01:55:01.952Z,49.79
2022-09-29T01:56:01.925Z,50.43
2022-09-29T01:57:01.912Z,49.47
2022-09-29T01:58:01.937Z,50.92
2022-09-29T01:59:01.908Z,50.27
2022-09-29T02:00:01.903Z,48.98
2022-09-29T02:01:01.921Z,45.28
2022-09-29T02:02:01.891Z,46.25
2022-09-29T02:03:01.878Z,46.08
2022-09-29T02:04:01.872Z,44.79
2022-09-29T02:05:01.862Z,46.25
2022-09-29T02:06:01.864Z,46.73
2022-09-29T02:07:01.852Z,49.47
2022-09-29T02:08:01.847Z,45.92
2022-09-29T02:09:01.835Z,45.28
2022-09-29T02:10:01.829Z,45.60
2022-09-29T02:11:01.840Z,45.60
2022-09-29T02:12:01.813Z,49.63
2022-09-29T02:13:01.822Z,50.27
2022-09-29T02:14:01.804Z,48.82
2022-09-29T02:15:01.796Z,46.57
2022-09-29T02:16:01.847Z,51.40
2022-09-29T02:17:01.784Z,49.79
2022-09-29T02:18:01.772Z,47.86
2022-09-29T02:19:01.768Z,50.76
2022-09-29T02:20:01.767Z,48.66
2022-09-29T02:21:01.766Z,47.86
2022-09-29T02:22:01.759Z,45.76
2022-09-29T02:23:01.744Z,47.53
2022-09-29T02:24:01.723Z,50.76
2022-09-29T02:25:01.741Z,49.47
2022-09-29T02:26:01.744Z,47.86
2022-09-29T02:27:01.712Z,45.92
2022-09-29T02:28:01.727Z,45.60
2022-09-29T02:29:01.708Z,47.37
2022-09-29T02:30:01.695Z,49.63
2022-09-29T02:31:01.882Z,49.63
2022-09-29T02:32:01.707Z,50.60
2022-09-29T02:33:01.676Z,51.72
2022-09-29T02:34:01.672Z,51.72
2022-09-29T02:35:01.661Z,53.66
2022-09-29T02:36:01.652Z,52.21
2022-09-29T02:37:01.668Z,50.60
2022-09-29T02:38:01.639Z,52.05
2022-09-29T02:39:01.631Z,48.98
2022-09-29T02:40:01.617Z,49.95
2022-09-29T02:41:01.672Z,48.34
2022-09-29T02:42:01.616Z,48.18
2022-09-29T02:43:01.609Z,49.63
2022-09-29T02:44:01.597Z,48.34
2022-09-29T02:45:01.591Z,49.15
2022-09-29T02:46:01.733Z,49.79
2022-09-29T02:47:01.582Z,52.05
2022-09-29T02:48:01.591Z,53.66
2022-09-29T02:49:01.565Z,52.37
2022-09-29T02:50:01.578Z,53.50
2022-09-29T02:51:01.557Z,51.24
2022-09-29T02:52:01.544Z,46.41
2022-09-29T02:53:01.539Z,53.50
2022-09-29T02:54:01.592Z,53.01
2022-09-29T02:55:01.538Z,52.21
2022-09-29T02:56:01.515Z,50.43
2022-09-29T02:57:01.508Z,50.11
2022-09-29T02:58:01.519Z,51.56
2022-09-29T02:59:01.506Z,51.24
2022-09-29T03:00:01.491Z,50.60
2022-09-29T03:01:01.542Z,50.60
2022-09-29T03:02:01.479Z,52.21
2022-09-29T03:03:01.499Z,54.14
2022-09-29T03:04:04.479Z,54.46
2022-09-29T03:05:01.463Z,52.53
2022-09-29T03:06:01.461Z,53.50
2022-09-29T03:07:01.446Z,52.05
2022-09-29T03:08:01.464Z,51.08
2022-09-29T03:09:01.428Z,52.85
2022-09-29T03:10:01.432Z,50.92
2022-09-29T03:11:01.417Z,49.31
2022-09-29T03:12:01.407Z,51.08
2022-09-29T03:13:01.409Z,52.53
2022-09-29T03:14:01.415Z,54.14
2022-09-29T03:15:01.392Z,53.17
2022-09-29T03:16:01.463Z,54.30
2022-09-29T03:17:01.380Z,54.62
2022-09-29T03:18:01.364Z,53.50
2022-09-29T03:19:01.383Z,54.30
2022-09-29T03:20:01.360Z,53.66
2022-09-29T03:21:01.344Z,53.50
2022-09-29T03:22:01.348Z,54.46
2022-09-29T03:23:01.339Z,53.82
2022-09-29T03:24:01.335Z,54.62
2022-09-29T03:25:01.329Z,54.30
2022-09-29T03:26:01.321Z,52.21
2022-09-29T03:27:01.311Z,55.59
2022-09-29T03:28:01.303Z,57.20
2022-09-29T03:29:01.319Z,54.95
2022-09-29T03:30:01.291Z,53.01
2022-09-29T03:31:01.364Z,55.27
2022-09-29T03:32:01.284Z,54.62
2022-09-29T03:33:01.272Z,55.27
2022-09-29T03:34:01.272Z,54.95
2022-09-29T03:35:01.263Z,54.62
2022-09-29T03:36:01.255Z,56.40
2022-09-29T03:37:01.256Z,55.59
2022-09-29T03:38:01.245Z,57.04
2022-09-29T03:39:01.235Z,54.79
2022-09-29T03:40:01.237Z,55.91
2022-09-29T03:41:01.304Z,55.43
2022-09-29T03:42:01.241Z,56.88
2022-09-29T03:43:01.210Z,57.04
2022-09-29T03:44:01.194Z,56.40
2022-09-29T03:45:01.202Z,56.24
2022-09-29T03:46:01.288Z,53.50
2022-09-29T03:47:01.187Z,55.59
2022-09-29T03:48:01.175Z,55.27
2022-09-29T03:49:01.172Z,56.88
2022-09-29T03:50:01.163Z,55.91
2022-09-29T03:51:01.152Z,57.52
2022-09-29T03:52:01.151Z,56.24
2022-09-29T03:53:01.140Z,54.95
2022-09-29T03:54:01.135Z,55.91
2022-09-29T03:55:01.127Z,56.88
2022-09-29T03:56:01.116Z,56.40
2022-09-29T03:57:01.126Z,56.07
2022-09-29T03:58:01.112Z,55.27
2022-09-29T03:59:01.764Z,56.24
2022-09-29T04:00:02.096Z,57.04
2022-09-29T04:01:01.147Z,55.43
2022-09-29T04:02:01.187Z,53.98
2022-09-29T04:03:01.068Z,53.82
2022-09-29T04:04:01.063Z,55.75
2022-09-29T04:05:01.051Z,55.91
2022-09-29T04:06:01.055Z,57.04
2022-09-29T04:07:01.055Z,56.72
2022-09-29T04:08:01.059Z,55.59
2022-09-29T04:09:01.035Z,55.75
2022-09-29T04:10:01.023Z,56.72
2022-09-29T04:11:01.025Z,54.79
2022-09-29T04:12:01.011Z,56.56
2022-09-29T04:13:01.015Z,57.85
2022-09-29T04:14:00.999Z,57.04
2022-09-29T04:15:00.992Z,54.95
2022-09-29T04:16:01.091Z,55.75
2022-09-29T04:17:00.987Z,55.59
2022-09-29T04:18:00.976Z,55.27
2022-09-29T04:19:00.985Z,55.75
2022-09-29T04:20:00.961Z,55.91
2022-09-29T04:21:01.014Z,55.43
2022-09-29T04:22:00.955Z,55.91
2022-09-29T04:23:00.943Z,55.75
2022-09-29T04:24:00.943Z,55.27
2022-09-29T04:25:00.932Z,56.88
2022-09-29T04:26:00.910Z,55.27
2022-09-29T04:27:00.915Z,54.79
2022-09-29T04:28:00.911Z,55.11
2022-09-29T04:29:00.921Z,56.72
2022-09-29T04:30:00.904Z,56.24
2022-09-29T04:31:00.887Z,54.95
2022-09-29T04:32:00.954Z,56.40
2022-09-29T04:33:00.867Z,57.36
2022-09-29T04:34:00.898Z,57.20
2022-09-29T04:35:00.858Z,54.95
2022-09-29T04:36:00.859Z,56.07
2022-09-29T04:37:00.842Z,57.36
2022-09-29T04:38:00.839Z,55.11
2022-09-29T04:39:00.863Z,56.88
2022-09-29T04:40:00.828Z,57.04
2022-09-29T04:41:00.887Z,56.40
2022-09-29T04:42:00.815Z,57.69
2022-09-29T04:43:00.834Z,57.85
2022-09-29T04:44:00.822Z,57.85
2022-09-29T04:45:00.795Z,57.20
2022-09-29T04:46:00.846Z,56.24
2022-09-29T04:47:00.793Z,57.69
2022-09-29T04:48:00.770Z,56.56
2022-09-29T04:49:00.783Z,57.04
2022-09-29T04:50:00.752Z,55.75
2022-09-29T04:51:00.750Z,56.07
2022-09-29T04:52:00.738Z,55.27
2022-09-29T04:53:00.794Z,55.43
2022-09-29T04:54:00.738Z,54.30
2022-09-29T04:55:00.720Z,55.91
2022-09-29T04:56:00.710Z,56.40
2022-09-29T04:57:01.375Z,56.72
2022-09-29T04:58:00.699Z,55.59
2022-09-29T04:59:00.692Z,56.40
2022-09-29T05:00:00.698Z,55.91
2022-09-29T05:01:00.738Z,56.88
2022-09-29T05:02:00.757Z,59.14
2022-09-29T05:03:00.667Z,58.65
2022-09-29T05:04:00.654Z,58.65
2022-09-29T05:05:00.675Z,57.69
2022-09-29T05:06:00.642Z,57.04
2022-09-29T05:07:00.633Z,55.75
2022-09-29T05:08:00.630Z,56.72
2022-09-29T05:09:00.619Z,57.20
2022-09-29T05:10:00.626Z,56.40
2022-09-29T05:11:00.618Z,58.33
2022-09-29T05:12:00.601Z,56.40
2022-09-29T05:13:00.597Z,56.24
2022-09-29T05:14:00.589Z,57.20
2022-09-29T05:15:00.584Z,56.88
2022-09-29T05:16:00.662Z,57.20
2022-09-29T05:17:00.562Z,56.72
2022-09-29T05:18:00.565Z,57.20
2022-09-29T05:19:00.556Z,56.40
2022-09-29T05:20:00.542Z,56.56
2022-09-29T05:21:25.874Z,56.56
2022-09-29T05:22:02.526Z,57.20
2022-09-29T05:23:00.520Z,57.52
2022-09-29T05:24:00.518Z,56.40
2022-09-29T05:25:00.506Z,57.52
2022-09-29T05:26:00.528Z,57.36
2022-09-29T05:27:00.498Z,57.04
2022-09-29T05:28:00.488Z,57.04
2022-09-29T05:29:00.474Z,57.20
2022-09-29T05:30:00.474Z,56.88
2022-09-29T05:31:00.478Z,55.11
2022-09-29T05:32:00.529Z,54.95
2022-09-29T05:33:00.459Z,56.88
2022-09-29T05:34:00.445Z,57.52
2022-09-29T05:35:00.448Z,57.52
2022-09-29T05:36:00.430Z,57.52
2022-09-29T05:37:00.446Z,56.88
2022-09-29T05:38:00.410Z,58.49
2022-09-29T05:39:00.406Z,58.33
2022-09-29T05:40:00.401Z,57.69
2022-09-29T05:41:00.460Z,58.33
2022-09-29T05:42:00.403Z,57.20
2022-09-29T05:43:00.394Z,56.56
2022-09-29T05:44:00.382Z,57.85
2022-09-29T05:45:00.362Z,56.72
2022-09-29T05:46:00.494Z,57.36
2022-09-29T05:47:00.360Z,58.49
2022-09-29T05:48:00.366Z,56.56
2022-09-29T05:49:00.330Z,58.01
2022-09-29T05:50:00.329Z,55.27
2022-09-29T05:51:00.326Z,57.20
2022-09-29T05:52:00.327Z,57.52
2022-09-29T05:53:00.334Z,56.72
2022-09-29T05:54:00.311Z,55.91
2022-09-29T05:55:00.293Z,55.75
2022-09-29T05:56:00.303Z,56.07
2022-09-29T05:57:00.278Z,53.66
2022-09-29T05:58:00.297Z,56.24
2022-09-29T05:59:00.265Z,55.91
2022-09-29T06:00:00.270Z,56.56
2022-09-29T06:01:00.310Z,56.40
2022-09-29T06:02:00.282Z,55.75
2022-09-29T06:03:00.243Z,56.40
2022-09-29T06:04:00.242Z,56.72
2022-09-29T06:05:01.686Z,55.59
2022-09-29T06:06:00.227Z,56.40
2022-09-29T06:07:00.198Z,56.56
2022-09-29T06:08:00.206Z,56.56
2022-09-29T06:09:00.218Z,54.95
2022-09-29T06:10:00.238Z,56.40
2022-09-29T06:11:00.187Z,56.24
2022-09-29T06:12:00.174Z,57.20
2022-09-29T06:13:00.154Z,56.24
2022-09-29T06:14:00.173Z,56.07
2022-09-29T06:15:00.169Z,55.27
2022-09-29T06:16:00.139Z,55.27
2022-09-29T06:17:00.234Z,56.40
2022-09-29T06:18:00.142Z,54.14
2022-09-29T06:19:00.122Z,55.75
2022-09-29T06:20:00.146Z,55.27
2022-09-29T06:21:00.150Z,56.24
2022-09-29T06:22:00.105Z,55.27
2022-09-29T06:23:00.116Z,57.20
2022-09-29T06:24:00.115Z,57.04
2022-09-29T06:25:00.098Z,56.72
2022-09-29T06:26:00.087Z,54.30
2022-09-29T06:27:00.082Z,54.46
2022-09-29T06:28:00.067Z,56.40
2022-09-29T06:29:00.085Z,54.95
2022-09-29T06:30:00.055Z,54.30
2022-09-29T06:31:00.046Z,54.46
2022-09-29T06:32:00.113Z,54.14
2022-09-29T06:33:00.034Z,53.82
2022-09-29T06:34:00.046Z,52.69
2022-09-29T06:35:00.023Z,55.43
2022-09-29T06:36:00.010Z,54.79
2022-09-29T06:37:00.015Z,53.82
2022-09-29T06:37:59.991Z,55.27
2022-09-29T06:38:59.986Z,54.79
2022-09-29T06:39:59.994Z,56.40
2022-09-29T06:40:59.999Z,57.36
2022-09-29T06:41:59.986Z,55.27
2022-09-29T06:42:59.962Z,55.43
2022-09-29T06:43:59.947Z,52.85
2022-09-29T06:44:59.952Z,55.11
2022-09-29T06:45:59.958Z,55.27
2022-09-29T06:46:59.931Z,55.43
2022-09-29T06:47:59.928Z,54.79
2022-09-29T06:48:59.918Z,53.82
2022-09-29T06:50:09.305Z,52.53
2022-09-29T06:51:09.566Z,53.33
2022-09-29T06:52:10.649Z,54.79
2022-09-29T06:53:04.358Z,54.95
2022-09-29T06:54:10.183Z,55.59
2022-09-29T06:55:01.889Z,55.11
2022-09-29T06:55:59.882Z,54.30
2022-09-29T06:56:59.845Z,55.43
2022-09-29T06:58:03.710Z,54.30
2022-09-29T06:59:00.842Z,55.27
2022-09-29T06:59:59.869Z,55.43
2022-09-29T07:00:59.863Z,56.88
2022-09-29T07:01:59.842Z,56.07
2022-09-29T07:02:59.810Z,56.40
2022-09-29T07:03:59.826Z,54.95
2022-09-29T07:04:59.809Z,56.40
2022-09-29T07:06:18.911Z,53.17
2022-09-29T07:07:01.781Z,54.95
2022-09-29T07:08:01.229Z,53.17
2022-09-29T07:09:00.785Z,53.82
2022-09-29T07:09:59.776Z,54.95
2022-09-29T07:10:59.755Z,52.85
2022-09-29T07:11:59.739Z,53.33
2022-09-29T07:12:59.750Z,53.01
2022-09-29T07:13:59.729Z,55.59
2022-09-29T07:14:59.713Z,55.91
2022-09-29T07:16:00.719Z,53.82
2022-09-29T07:16:59.710Z,53.33
2022-09-29T07:17:59.713Z,54.95
2022-09-29T07:18:59.694Z,54.62
2022-09-29T07:19:59.689Z,54.79
2022-09-29T07:20:59.678Z,54.14
2022-09-29T07:21:59.672Z,54.46
2022-09-29T07:22:59.678Z,52.37
2022-09-29T07:24:02.198Z,53.82
2022-09-29T07:25:00.649Z,52.37
2022-09-29T07:25:59.709Z,54.79
2022-09-29T07:26:59.621Z,54.14
2022-09-29T07:27:59.622Z,53.33
2022-09-29T07:28:59.634Z,51.88
2022-09-29T07:30:04.308Z,52.69
2022-09-29T07:31:11.863Z,52.21
2022-09-29T07:32:01.635Z,53.82
2022-09-29T07:33:02.385Z,52.37
2022-09-29T07:34:00.598Z,53.66
2022-09-29T07:34:59.583Z,53.82
2022-09-29T07:35:59.578Z,53.17
2022-09-29T07:36:59.562Z,52.85
2022-09-29T07:37:59.558Z,52.21
2022-09-29T07:38:59.561Z,52.21
2022-09-29T07:39:59.571Z,52.85
2022-09-29T07:40:59.611Z,54.14
2022-09-29T07:41:59.553Z,53.98
2022-09-29T07:42:59.517Z,54.46
2022-09-29T07:43:59.582Z,53.82
2022-09-29T07:44:59.506Z,53.33
2022-09-29T07:45:59.560Z,55.91
2022-09-29T07:46:59.505Z,54.46
2022-09-29T07:47:59.494Z,53.33
2022-09-29T07:48:59.473Z,52.21
2022-09-29T07:49:59.458Z,54.30
2022-09-29T07:50:59.477Z,53.66
2022-09-29T07:51:59.457Z,53.66
2022-09-29T07:52:59.441Z,55.59
2022-09-29T07:53:59.503Z,53.82
2022-09-29T07:54:59.439Z,55.27
2022-09-29T07:55:59.438Z,54.46
2022-09-29T07:56:59.414Z,53.17
2022-09-29T07:57:59.417Z,53.82
2022-09-29T07:58:59.405Z,53.01
2022-09-29T07:59:59.402Z,54.14
2022-09-29T08:00:59.441Z,53.17
2022-09-29T08:01:59.430Z,55.27
2022-09-29T08:02:59.374Z,53.98
2022-09-29T08:03:59.440Z,53.82
2022-09-29T08:05:03.247Z,53.33
2022-09-29T08:05:59.357Z,52.53
2022-09-29T08:06:59.357Z,52.69
2022-09-29T08:07:59.329Z,56.40
2022-09-29T08:09:04.219Z,54.79
2022-09-29T08:10:10.953Z,54.62
2022-09-29T08:11:01.327Z,54.30
2022-09-29T08:12:06.615Z,53.98
2022-09-29T08:13:01.305Z,54.46
2022-09-29T08:13:59.365Z,52.53
2022-09-29T08:14:59.290Z,53.98
2022-09-29T08:15:59.295Z,53.66
2022-09-29T08:16:59.371Z,52.85
2022-09-29T08:17:59.270Z,52.53
2022-09-29T08:18:59.315Z,54.30
2022-09-29T08:19:59.261Z,53.66
2022-09-29T08:21:01.418Z,55.43
2022-09-29T08:21:59.257Z,54.46
2022-09-29T08:22:59.233Z,53.17
2022-09-29T08:23:59.258Z,53.17
2022-09-29T08:24:59.225Z,51.88
2022-09-29T08:26:01.885Z,54.30
2022-09-29T08:27:06.876Z,55.75
2022-09-29T08:28:01.205Z,53.66
2022-09-29T08:29:07.636Z,53.98
2022-09-29T08:30:00.188Z,54.14
2022-09-29T08:31:03.544Z,55.11
2022-09-29T08:32:01.255Z,56.56
2022-09-29T08:32:59.172Z,54.95
2022-09-29T08:33:59.203Z,53.82
2022-09-29T08:34:59.170Z,53.01
2022-09-29T08:35:59.146Z,53.82
2022-09-29T08:36:59.137Z,53.50
2022-09-29T08:37:59.144Z,53.82
2022-09-29T08:38:59.133Z,52.37
2022-09-29T08:39:59.125Z,53.82
2022-09-29T08:40:59.168Z,52.69
2022-09-29T08:41:59.103Z,54.62
2022-09-29T08:42:59.101Z,55.59
2022-09-29T08:44:00.100Z,54.14
2022-09-29T08:45:08.432Z,53.33
2022-09-29T08:46:01.206Z,54.79
2022-09-29T08:47:08.717Z,53.82
2022-09-29T08:48:02.659Z,52.69
2022-09-29T08:48:59.045Z,53.17
2022-09-29T08:49:59.049Z,52.37
2022-09-29T08:50:59.043Z,52.53
2022-09-29T08:52:10.627Z,54.14
2022-09-29T08:53:01.078Z,52.69
2022-09-29T08:54:03.590Z,53.98
2022-09-29T08:55:10.549Z,53.33
2022-09-29T08:56:00.022Z,53.66
2022-09-29T08:56:59.018Z,54.30
2022-09-29T08:57:58.989Z,53.98
2022-09-29T08:58:58.982Z,53.82
2022-09-29T08:59:58.981Z,53.82
2022-09-29T09:00:59.013Z,53.01
2022-09-29T09:01:58.993Z,53.01
2022-09-29T09:02:59.040Z,53.82
2022-09-29T09:03:58.961Z,53.01
2022-09-29T09:04:58.949Z,53.33
2022-09-29T09:05:58.943Z,53.33
2022-09-29T09:06:58.945Z,53.66
2022-09-29T09:08:01.910Z,52.53
2022-09-29T09:08:59.916Z,53.33
2022-09-29T09:09:58.909Z,52.53
2022-09-29T09:10:58.902Z,53.82
2022-09-29T09:11:58.902Z,53.98
2022-09-29T09:12:58.913Z,54.46
2022-09-29T09:13:58.893Z,53.01
2022-09-29T09:14:58.913Z,54.79
2022-09-29T09:15:58.876Z,56.56
2022-09-29T09:16:58.941Z,55.11
2022-09-29T09:17:58.873Z,54.46
2022-09-29T09:19:58.841Z,53.98
2022-09-29T09:20:59.869Z,53.33
2022-09-29T09:21:58.836Z,53.82
2022-09-29T09:22:58.849Z,53.33
2022-09-29T09:24:00.793Z,54.46
2022-09-29T09:24:58.820Z,57.20
2022-09-29T09:25:58.813Z,57.85
2022-09-29T09:26:58.809Z,57.04
2022-09-29T09:27:58.816Z,55.91
2022-09-29T09:28:58.798Z,55.11
2022-09-29T09:29:58.789Z,56.07
2022-09-29T09:30:58.863Z,55.11
2022-09-29T09:31:58.773Z,53.82
2022-09-29T09:32:58.787Z,54.62
2022-09-29T09:34:05.866Z,53.50
2022-09-29T09:35:15.167Z,53.66
2022-09-29T09:36:00.749Z,53.17
2022-09-29T09:37:06.706Z,54.30
2022-09-29T09:37:59.732Z,53.17
2022-09-29T09:38:58.741Z,53.66
2022-09-29T09:39:58.738Z,54.46
2022-09-29T09:40:58.717Z,53.98
2022-09-29T09:41:58.704Z,53.66
2022-09-29T09:42:58.702Z,53.33
2022-09-29T09:43:58.714Z,52.69
2022-09-29T09:44:58.689Z,53.33
2022-09-29T09:45:58.769Z,50.92
2022-09-29T09:46:58.677Z,53.01
2022-09-29T09:47:58.669Z,53.66
2022-09-29T09:48:58.657Z,51.24
2022-09-29T09:49:58.665Z,55.11
2022-09-29T09:50:58.645Z,52.85
2022-09-29T09:51:58.697Z,53.82
2022-09-29T09:52:58.661Z,52.69
2022-09-29T09:53:58.624Z,53.01
2022-09-29T09:54:58.626Z,52.69
2022-09-29T09:55:58.614Z,52.21
2022-09-29T09:56:58.603Z,51.24
2022-09-29T09:57:58.592Z,51.24
2022-09-29T09:58:58.590Z,53.33
2022-09-29T09:59:58.617Z,54.79
2022-09-29T10:00:58.709Z,53.66
2022-09-29T10:01:58.671Z,53.33
2022-09-29T10:02:58.552Z,53.98
2022-09-29T10:03:58.553Z,54.30
2022-09-29T10:04:58.555Z,55.11
2022-09-29T10:05:58.541Z,53.82
2022-09-29T10:06:58.529Z,53.50
2022-09-29T10:07:59.150Z,49.47
2022-09-29T10:08:58.585Z,50.43
2022-09-29T10:09:58.516Z,49.63
2022-09-29T10:10:59.394Z,50.60
2022-09-29T10:11:59.492Z,49.79
2022-09-29T10:13:00.020Z,51.72
2022-09-29T10:13:59.487Z,50.60
2022-09-29T10:14:58.485Z,53.33
2022-09-29T10:15:58.478Z,51.72
2022-09-29T10:16:58.528Z,53.17
2022-09-29T10:17:58.489Z,51.72
2022-09-29T10:18:58.448Z,51.40
2022-09-29T10:19:58.451Z,49.63
2022-09-29T10:20:58.433Z,54.30
2022-09-29T10:21:58.453Z,60.91
2022-09-29T10:22:58.426Z,52.85
2022-09-29T10:23:58.429Z,54.46
2022-09-29T10:24:58.408Z,54.30
2022-09-29T10:25:58.412Z,51.72
2022-09-29T10:26:58.411Z,48.98
2022-09-29T10:27:58.396Z,50.27
2022-09-29T10:28:58.449Z,49.15
2022-09-29T10:29:58.389Z,50.43
2022-09-29T10:30:58.395Z,50.92
2022-09-29T10:31:58.389Z,50.27
2022-09-29T10:32:58.361Z,51.56
2022-09-29T10:33:58.354Z,52.21
2022-09-29T10:34:58.337Z,53.33
2022-09-29T10:35:58.338Z,53.82
2022-09-29T10:36:58.362Z,50.11
2022-09-29T10:37:58.326Z,49.47
2022-09-29T10:39:02.465Z,50.27
2022-09-29T10:39:59.312Z,52.21
2022-09-29T10:40:58.300Z,49.15
2022-09-29T10:41:58.300Z,48.82
2022-09-29T10:42:58.334Z,50.27
2022-09-29T10:43:58.284Z,50.60
2022-09-29T10:44:58.283Z,50.60
2022-09-29T10:45:58.322Z,49.31
2022-09-29T10:46:58.268Z,51.40
2022-09-29T10:47:58.277Z,49.15
2022-09-29T10:48:58.245Z,47.70
2022-09-29T10:49:58.239Z,46.73
2022-09-29T10:50:58.340Z,48.98
2022-09-29T10:51:58.239Z,48.66
2022-09-29T10:52:58.237Z,50.43
2022-09-29T10:53:58.235Z,46.41
2022-09-29T10:54:58.219Z,49.31
2022-09-29T10:55:58.211Z,48.98
2022-09-29T10:56:58.207Z,47.53
2022-09-29T10:57:58.220Z,49.47
2022-09-29T10:59:01.873Z,50.27
2022-09-29T10:59:58.192Z,48.50
2022-09-29T11:00:58.221Z,49.95
2022-09-29T11:01:58.221Z,47.37
2022-09-29T11:02:58.167Z,48.82
2022-09-29T11:03:58.171Z,49.47
2022-09-29T11:04:58.147Z,47.70
2022-09-29T11:05:58.156Z,50.11
2022-09-29T11:06:58.143Z,48.66
2022-09-29T11:07:58.168Z,48.34
2022-09-29T11:08:58.306Z,50.43
2022-09-29T11:09:58.123Z,49.47
2022-09-29T11:10:58.119Z,51.08
2022-09-29T11:12:02.261Z,50.11
2022-09-29T11:13:00.111Z,51.08
2022-09-29T11:13:58.103Z,50.11
2022-09-29T11:14:58.117Z,48.66
2022-09-29T11:15:58.093Z,49.47
2022-09-29T11:16:58.130Z,48.02
2022-09-29T11:17:58.116Z,50.43
2022-09-29T11:18:58.075Z,51.72
2022-09-29T11:19:58.083Z,50.11
2022-09-29T11:20:58.065Z,50.60
2022-09-29T11:21:58.072Z,51.40
2022-09-29T11:22:58.048Z,50.11
2022-09-29T11:23:58.048Z,50.60
2022-09-29T11:24:58.060Z,49.95
2022-09-29T11:25:58.030Z,50.76
2022-09-29T11:26:58.026Z,48.82
2022-09-29T11:27:58.019Z,50.11
2022-09-29T11:28:58.019Z,51.56
2022-09-29T11:29:58.007Z,49.47
2022-09-29T11:30:58.050Z,50.60
2022-09-29T11:31:57.999Z,50.11
2022-09-29T11:32:57.984Z,50.43
2022-09-29T11:33:57.984Z,50.43
2022-09-29T11:34:57.975Z,50.11
2022-09-29T11:35:57.971Z,50.76
2022-09-29T11:36:57.970Z,50.43
2022-09-29T11:37:57.972Z,50.11
2022-09-29T11:38:57.939Z,51.40
2022-09-29T11:39:57.951Z,52.21
2022-09-29T11:40:57.947Z,46.89
2022-09-29T11:41:57.931Z,45.28
2022-09-29T11:42:57.927Z,50.27
2022-09-29T11:43:57.936Z,51.56
2022-09-29T11:44:57.911Z,49.63
2022-09-29T11:45:57.931Z,48.34
2022-09-29T11:46:57.918Z,51.08
2022-09-29T11:47:57.898Z,51.08
2022-09-29T11:48:57.895Z,50.92
2022-09-29T11:49:57.886Z,51.56
2022-09-29T11:50:57.870Z,52.21
2022-09-29T11:51:57.895Z,51.40
2022-09-29T11:52:57.871Z,53.66
2022-09-29T11:53:57.859Z,53.66
2022-09-29T11:54:57.854Z,54.95
2022-09-29T11:55:57.851Z,52.69
2022-09-29T11:56:57.840Z,51.88
2022-09-29T11:57:58.131Z,53.17
2022-09-29T11:58:57.836Z,54.79
2022-09-29T11:59:57.822Z,53.33
2022-09-29T12:00:57.819Z,52.21
2022-09-29T12:01:57.868Z,51.56
2022-09-29T12:02:57.978Z,50.92
2022-09-29T12:03:57.795Z,51.40
2022-09-29T12:04:57.790Z,48.82
2022-09-29T12:05:57.783Z,49.63
2022-09-29T12:06:57.783Z,51.08
2022-09-29T12:07:57.770Z,50.11
2022-09-29T12:08:57.824Z,50.60
2022-09-29T12:09:57.764Z,49.47
2022-09-29T12:10:57.752Z,49.95
2022-09-29T12:12:19.047Z,50.11
2022-09-29T12:12:59.742Z,50.92
2022-09-29T12:13:57.731Z,48.82
2022-09-29T12:14:57.718Z,48.02
2022-09-29T12:15:57.710Z,50.11
2022-09-29T12:16:57.788Z,48.66
2022-09-29T12:17:57.711Z,50.11
2022-09-29T12:18:57.702Z,52.69
2022-09-29T12:19:57.695Z,51.24
2022-09-29T12:20:57.686Z,50.11
2022-09-29T12:21:57.679Z,48.50
2022-09-29T12:22:57.679Z,51.72
2022-09-29T12:23:57.670Z,52.53
2022-09-29T12:24:57.668Z,49.95
2022-09-29T12:25:57.658Z,48.50
2022-09-29T12:26:57.644Z,52.85
2022-09-29T12:27:57.641Z,54.14
2022-09-29T12:28:57.662Z,52.85
2022-09-29T12:29:57.640Z,53.50
2022-09-29T12:30:57.662Z,54.14
2022-09-29T12:31:57.612Z,52.37
2022-09-29T12:32:57.606Z,51.24
2022-09-29T12:33:57.607Z,53.82
2022-09-29T12:34:57.610Z,49.79
2022-09-29T12:35:57.586Z,50.11
2022-09-29T12:36:57.583Z,51.72
2022-09-29T12:37:57.570Z,50.43
2022-09-29T12:38:58.569Z,50.27
2022-09-29T12:39:57.566Z,52.05
2022-09-29T12:40:57.555Z,51.88
2022-09-29T12:41:57.563Z,52.53
2022-09-29T12:42:57.538Z,50.60
2022-09-29T12:43:57.543Z,48.82
2022-09-29T12:44:57.579Z,50.27
2022-09-29T12:45:57.567Z,51.24
2022-09-29T12:46:57.540Z,49.79
2022-09-29T12:47:57.538Z,50.27
2022-09-29T12:48:57.519Z,49.15
2022-09-29T12:49:57.506Z,50.76
2022-09-29T12:50:57.506Z,51.72
2022-09-29T12:51:57.512Z,51.24
2022-09-29T12:52:57.520Z,51.88